sensor_id;sensor_type;location;lat;lon;timestamp;P1;durP1;ratioP1;P2;durP2;ratioP2
15712;SDS011;7957;51.608;6.916;2023-03-01T00:00:16;10.63;;;8.97;;
15712;SDS011;7957;51.608;6.916;2023-03-01T00:02:44;9.67;;;8.67;;
15712;SDS011;7957;51.608;6.916;2023-03-01T00:05:12;9.97;;;8.97;;
15712;SDS011;7957;51.608;6.916;2023-03-01T00:07:39;9.57;;;8.20;;
15712;SDS011;7957;51.608;6.916;2023-03-01T00:10:06;10.23;;;8.23;;
15712;SDS011;7957;51.608;6.916;2023-03-01T00:12:33;8.77;;;7.87;;
15712;SDS011;7957;51.608;6.916;2023-03-01T00:15:01;9.77;;;8.67;;
15712;SDS011;7957;51.608;6.916;2023-03-01T00:17:29;9.27;;;8.33;;
15712;SDS011;7957;51.608;6.916;2023-03-01T00:19:56;9.27;;;8.27;;
15712;SDS011;7957;51.608;6.916;2023-03-01T00:22:25;12.50;;;9.27;;
15712;SDS011;7957;51.608;6.916;2023-03-01T00:24:53;9.10;;;7.93;;
15712;SDS011;7957;51.608;6.916;2023-03-01T00:27:20;9.67;;;8.67;;
15712;SDS011;7957;51.608;6.916;2023-03-01T00:29:47;10.17;;;8.70;;
15712;SDS011;7957;51.608;6.916;2023-03-01T00:32:14;10.13;;;8.17;;
15712;SDS011;7957;51.608;6.916;2023-03-01T00:34:41;10.03;;;8.43;;
15712;SDS011;7957;51.608;6.916;2023-03-01T00:37:08;8.90;;;8.10;;
15712;SDS011;7957;51.608;6.916;2023-03-01T00:39:36;8.83;;;7.97;;
15712;SDS011;7957;51.608;6.916;2023-03-01T00:42:03;9.27;;;8.37;;
15712;SDS011;7957;51.608;6.916;2023-03-01T00:44:30;9.93;;;8.57;;
15712;SDS011;7957;51.608;6.916;2023-03-01T00:46:57;9.30;;;8.47;;
15712;SDS011;7957;51.608;6.916;2023-03-01T00:49:24;10.37;;;8.63;;
15712;SDS011;7957;51.608;6.916;2023-03-01T00:51:52;8.73;;;7.83;;
15712;SDS011;7957;51.608;6.916;2023-03-01T00:54:19;9.37;;;8.03;;
15712;SDS011;7957;51.608;6.916;2023-03-01T00:56:48;9.27;;;8.27;;
15712;SDS011;7957;51.608;6.916;2023-03-01T00:59:15;9.40;;;8.47;;
15712;SDS011;7957;51.608;6.916;2023-03-01T01:01:42;9.27;;;8.37;;
15712;SDS011;7957;51.608;6.916;2023-03-01T01:04:09;9.07;;;8.17;;
15712;SDS011;7957;51.608;6.916;2023-03-01T01:06:38;9.50;;;8.43;;
15712;SDS011;7957;51.608;6.916;2023-03-01T01:09:08;9.40;;;8.50;;
15712;SDS011;7957;51.608;6.916;2023-03-01T01:11:42;10.90;;;8.23;;
15712;SDS011;7957;51.608;6.916;2023-03-01T01:14:11;10.10;;;8.57;;
15712;SDS011;7957;51.608;6.916;2023-03-01T01:16:38;9.97;;;8.57;;
15712;SDS011;7957;51.608;6.916;2023-03-01T01:19:05;9.93;;;8.47;;
15712;SDS011;7957;51.608;6.916;2023-03-01T01:21:32;9.80;;;8.63;;
15712;SDS011;7957;51.608;6.916;2023-03-01T01:23:59;8.77;;;7.90;;
15712;SDS011;7957;51.608;6.916;2023-03-01T01:26:27;8.77;;;7.87;;
15712;SDS011;7957;51.608;6.916;2023-03-01T01:28:55;9.30;;;8.40;;
15712;SDS011;7957;51.608;6.916;2023-03-01T01:31:25;10.57;;;8.67;;
15712;SDS011;7957;51.608;6.916;2023-03-01T01:33:55;9.97;;;8.00;;
15712;SDS011;7957;51.608;6.916;2023-03-01T01:36:22;9.93;;;8.57;;
15712;SDS011;7957;51.608;6.916;2023-03-01T01:38:49;10.30;;;8.50;;
15712;SDS011;7957;51.608;6.916;2023-03-01T01:41:17;10.73;;;9.17;;
15712;SDS011;7957;51.608;6.916;2023-03-01T01:43:45;9.57;;;8.57;;
15712;SDS011;7957;51.608;6.916;2023-03-01T01:46:15;9.67;;;8.23;;
15712;SDS011;7957;51.608;6.916;2023-03-01T01:48:51;9.97;;;8.63;;
15712;SDS011;7957;51.608;6.916;2023-03-01T01:51:21;8.90;;;8.10;;
15712;SDS011;7957;51.608;6.916;2023-03-01T01:53:53;9.27;;;8.37;;
15712;SDS011;7957;51.608;6.916;2023-03-01T01:56:22;9.10;;;8.20;;
15712;SDS011;7957;51.608;6.916;2023-03-01T01:58:50;8.80;;;7.90;;
15712;SDS011;7957;51.608;6.916;2023-03-01T02:01:17;9.40;;;8.40;;
15712;SDS011;7957;51.608;6.916;2023-03-01T02:03:44;9.27;;;8.37;;
15712;SDS011;7957;51.608;6.916;2023-03-01T02:06:15;9.33;;;8.33;;
15712;SDS011;7957;51.608;6.916;2023-03-01T02:08:48;9.93;;;8.93;;
15712;SDS011;7957;51.608;6.916;2023-03-01T02:11:17;9.93;;;8.43;;
15712;SDS011;7957;51.608;6.916;2023-03-01T02:13:44;9.47;;;8.30;;
15712;SDS011;7957;51.608;6.916;2023-03-01T02:16:14;9.17;;;8.27;;
15712;SDS011;7957;51.608;6.916;2023-03-01T02:18:42;9.47;;;8.47;;
15712;SDS011;7957;51.608;6.916;2023-03-01T02:21:13;9.93;;;8.93;;
15712;SDS011;7957;51.608;6.916;2023-03-01T02:23:56;9.87;;;8.87;;
15712;SDS011;7957;51.608;6.916;2023-03-01T02:26:32;10.20;;;8.07;;
15712;SDS011;7957;51.608;6.916;2023-03-01T02:29:07;10.03;;;8.97;;
15712;SDS011;7957;51.608;6.916;2023-03-01T02:31:34;10.80;;;8.80;;
15712;SDS011;7957;51.608;6.916;2023-03-01T02:34:11;9.00;;;8.10;;
15712;SDS011;7957;51.608;6.916;2023-03-01T02:36:40;10.10;;;8.73;;
15712;SDS011;7957;51.608;6.916;2023-03-01T02:39:11;9.90;;;8.37;;
15712;SDS011;7957;51.608;6.916;2023-03-01T02:41:44;9.00;;;8.10;;
15712;SDS011;7957;51.608;6.916;2023-03-01T02:44:16;9.67;;;8.63;;
15712;SDS011;7957;51.608;6.916;2023-03-01T02:46:45;10.00;;;9.00;;
15712;SDS011;7957;51.608;6.916;2023-03-01T02:49:18;9.37;;;8.43;;
15712;SDS011;7957;51.608;6.916;2023-03-01T02:51:48;10.33;;;8.17;;
15712;SDS011;7957;51.608;6.916;2023-03-01T02:54:42;9.27;;;8.30;;
15712;SDS011;7957;51.608;6.916;2023-03-01T02:57:13;10.17;;;9.10;;
15712;SDS011;7957;51.608;6.916;2023-03-01T02:59:42;10.17;;;9.07;;
15712;SDS011;7957;51.608;6.916;2023-03-01T03:02:18;9.53;;;8.63;;
15712;SDS011;7957;51.608;6.916;2023-03-01T03:05:00;9.73;;;8.70;;
15712;SDS011;7957;51.608;6.916;2023-03-01T03:07:31;10.03;;;9.03;;
15712;SDS011;7957;51.608;6.916;2023-03-01T03:09:58;9.40;;;8.40;;
15712;SDS011;7957;51.608;6.916;2023-03-01T03:12:25;11.37;;;9.63;;
15712;SDS011;7957;51.608;6.916;2023-03-01T03:14:53;10.97;;;9.23;;
15712;SDS011;7957;51.608;6.916;2023-03-01T03:17:20;10.33;;;9.27;;
15712;SDS011;7957;51.608;6.916;2023-03-01T03:19:47;10.20;;;9.13;;
15712;SDS011;7957;51.608;6.916;2023-03-01T03:22:15;9.83;;;8.83;;
15712;SDS011;7957;51.608;6.916;2023-03-01T03:24:42;10.50;;;9.03;;
15712;SDS011;7957;51.608;6.916;2023-03-01T03:27:09;10.23;;;9.13;;
15712;SDS011;7957;51.608;6.916;2023-03-01T03:29:36;9.67;;;8.77;;
15712;SDS011;7957;51.608;6.916;2023-03-01T03:32:04;10.03;;;8.77;;
15712;SDS011;7957;51.608;6.916;2023-03-01T03:34:32;10.07;;;8.87;;
15712;SDS011;7957;51.608;6.916;2023-03-01T03:36:59;10.47;;;9.27;;
15712;SDS011;7957;51.608;6.916;2023-03-01T03:39:26;10.27;;;9.27;;
15712;SDS011;7957;51.608;6.916;2023-03-01T03:41:54;10.17;;;9.10;;
15712;SDS011;7957;51.608;6.916;2023-03-01T03:44:21;10.73;;;8.77;;
15712;SDS011;7957;51.608;6.916;2023-03-01T03:46:48;10.17;;;8.77;;
15712;SDS011;7957;51.608;6.916;2023-03-01T03:49:17;12.27;;;9.67;;
15712;SDS011;7957;51.608;6.916;2023-03-01T03:51:44;10.57;;;9.47;;
15712;SDS011;7957;51.608;6.916;2023-03-01T03:54:11;11.73;;;9.67;;
15712;SDS011;7957;51.608;6.916;2023-03-01T03:56:38;10.17;;;9.07;;
15712;SDS011;7957;51.608;6.916;2023-03-01T03:59:05;12.03;;;9.40;;
15712;SDS011;7957;51.608;6.916;2023-03-01T04:01:32;13.37;;;9.27;;
15712;SDS011;7957;51.608;6.916;2023-03-01T04:03:59;13.33;;;9.63;;
15712;SDS011;7957;51.608;6.916;2023-03-01T04:06:30;11.30;;;8.70;;
15712;SDS011;7957;51.608;6.916;2023-03-01T04:08:57;12.70;;;8.70;;
15712;SDS011;7957;51.608;6.916;2023-03-01T04:11:25;10.97;;;8.80;;
15712;SDS011;7957;51.608;6.916;2023-03-01T04:13:55;11.73;;;9.50;;
15712;SDS011;7957;51.608;6.916;2023-03-01T04:16:24;10.17;;;8.50;;
15712;SDS011;7957;51.608;6.916;2023-03-01T04:18:51;12.80;;;9.17;;
15712;SDS011;7957;51.608;6.916;2023-03-01T04:21:19;11.40;;;8.90;;
15712;SDS011;7957;51.608;6.916;2023-03-01T04:23:48;11.30;;;9.63;;
15712;SDS011;7957;51.608;6.916;2023-03-01T04:26:17;11.87;;;10.00;;
15712;SDS011;7957;51.608;6.916;2023-03-01T04:28:44;10.50;;;9.40;;
15712;SDS011;7957;51.608;6.916;2023-03-01T04:31:13;10.83;;;9.67;;
15712;SDS011;7957;51.608;6.916;2023-03-01T04:33:42;12.43;;;9.17;;
15712;SDS011;7957;51.608;6.916;2023-03-01T04:36:11;10.23;;;9.00;;
15712;SDS011;7957;51.608;6.916;2023-03-01T04:38:39;12.27;;;9.57;;
15712;SDS011;7957;51.608;6.916;2023-03-01T04:41:08;10.97;;;9.27;;
15712;SDS011;7957;51.608;6.916;2023-03-01T04:43:37;10.13;;;8.53;;
15712;SDS011;7957;51.608;6.916;2023-03-01T04:46:05;11.27;;;9.33;;
15712;SDS011;7957;51.608;6.916;2023-03-01T04:48:34;9.77;;;8.77;;
15712;SDS011;7957;51.608;6.916;2023-03-01T04:51:02;10.67;;;8.83;;
15712;SDS011;7957;51.608;6.916;2023-03-01T04:53:30;10.57;;;9.47;;
15712;SDS011;7957;51.608;6.916;2023-03-01T04:55:58;10.37;;;9.20;;
15712;SDS011;7957;51.608;6.916;2023-03-01T04:58:27;10.60;;;9.50;;
15712;SDS011;7957;51.608;6.916;2023-03-01T05:00:54;10.27;;;9.23;;
15712;SDS011;7957;51.608;6.916;2023-03-01T05:03:22;10.57;;;9.17;;
15712;SDS011;7957;51.608;6.916;2023-03-01T05:05:50;10.77;;;8.90;;
15712;SDS011;7957;51.608;6.916;2023-03-01T05:08:18;10.33;;;8.93;;
15712;SDS011;7957;51.608;6.916;2023-03-01T05:10:46;10.50;;;9.40;;
15712;SDS011;7957;51.608;6.916;2023-03-01T05:13:15;10.57;;;9.50;;
15712;SDS011;7957;51.608;6.916;2023-03-01T05:15:48;10.53;;;8.63;;
15712;SDS011;7957;51.608;6.916;2023-03-01T05:18:19;11.17;;;9.27;;
15712;SDS011;7957;51.608;6.916;2023-03-01T05:20:46;10.80;;;9.70;;
15712;SDS011;7957;51.608;6.916;2023-03-01T05:23:13;9.60;;;8.60;;
15712;SDS011;7957;51.608;6.916;2023-03-01T05:25:40;9.90;;;8.83;;
15712;SDS011;7957;51.608;6.916;2023-03-01T05:28:07;10.17;;;8.50;;
15712;SDS011;7957;51.608;6.916;2023-03-01T05:30:37;11.13;;;9.50;;
15712;SDS011;7957;51.608;6.916;2023-03-01T05:33:06;10.60;;;9.50;;
15712;SDS011;7957;51.608;6.916;2023-03-01T05:35:38;10.43;;;9.33;;
15712;SDS011;7957;51.608;6.916;2023-03-01T05:38:05;10.20;;;9.10;;
15712;SDS011;7957;51.608;6.916;2023-03-01T05:40:33;10.77;;;9.50;;
15712;SDS011;7957;51.608;6.916;2023-03-01T05:43:00;11.23;;;9.77;;
15712;SDS011;7957;51.608;6.916;2023-03-01T05:45:30;10.90;;;9.80;;
15712;SDS011;7957;51.608;6.916;2023-03-01T05:47:58;12.97;;;9.67;;
15712;SDS011;7957;51.608;6.916;2023-03-01T05:50:27;10.80;;;9.60;;
15712;SDS011;7957;51.608;6.916;2023-03-01T05:52:57;10.73;;;9.73;;
15712;SDS011;7957;51.608;6.916;2023-03-01T05:55:26;11.60;;;10.40;;
15712;SDS011;7957;51.608;6.916;2023-03-01T05:57:53;10.33;;;9.07;;
15712;SDS011;7957;51.608;6.916;2023-03-01T06:00:21;11.53;;;10.33;;
15712;SDS011;7957;51.608;6.916;2023-03-01T06:02:48;11.17;;;9.93;;
15712;SDS011;7957;51.608;6.916;2023-03-01T06:05:15;10.03;;;9.13;;
15712;SDS011;7957;51.608;6.916;2023-03-01T06:07:43;11.70;;;10.07;;
15712;SDS011;7957;51.608;6.916;2023-03-01T06:10:11;14.33;;;9.80;;
15712;SDS011;7957;51.608;6.916;2023-03-01T06:12:39;13.10;;;10.13;;
15712;SDS011;7957;51.608;6.916;2023-03-01T06:15:07;11.37;;;10.27;;
15712;SDS011;7957;51.608;6.916;2023-03-01T06:17:35;11.20;;;10.10;;
15712;SDS011;7957;51.608;6.916;2023-03-01T06:20:04;11.57;;;10.00;;
15712;SDS011;7957;51.608;6.916;2023-03-01T06:22:32;13.63;;;11.70;;
15712;SDS011;7957;51.608;6.916;2023-03-01T06:25:00;11.83;;;10.63;;
15712;SDS011;7957;51.608;6.916;2023-03-01T06:27:28;12.77;;;10.87;;
15712;SDS011;7957;51.608;6.916;2023-03-01T06:29:55;11.47;;;10.30;;
15712;SDS011;7957;51.608;6.916;2023-03-01T06:32:22;14.10;;;11.30;;
15712;SDS011;7957;51.608;6.916;2023-03-01T06:34:49;12.97;;;10.13;;
15712;SDS011;7957;51.608;6.916;2023-03-01T06:37:17;12.90;;;10.47;;
15712;SDS011;7957;51.608;6.916;2023-03-01T06:39:44;13.53;;;11.00;;
15712;SDS011;7957;51.608;6.916;2023-03-01T06:42:13;13.37;;;11.07;;
15712;SDS011;7957;51.608;6.916;2023-03-01T06:44:40;13.10;;;10.20;;
15712;SDS011;7957;51.608;6.916;2023-03-01T06:47:07;13.63;;;10.97;;
15712;SDS011;7957;51.608;6.916;2023-03-01T06:49:34;13.97;;;10.53;;
15712;SDS011;7957;51.608;6.916;2023-03-01T06:52:01;13.60;;;10.73;;
15712;SDS011;7957;51.608;6.916;2023-03-01T06:54:28;11.90;;;10.70;;
15712;SDS011;7957;51.608;6.916;2023-03-01T06:56:55;12.00;;;10.80;;
15712;SDS011;7957;51.608;6.916;2023-03-01T06:59:23;12.70;;;11.13;;
15712;SDS011;7957;51.608;6.916;2023-03-01T07:01:50;11.13;;;9.93;;
15712;SDS011;7957;51.608;6.916;2023-03-01T07:04:17;12.07;;;10.57;;
15712;SDS011;7957;51.608;6.916;2023-03-01T07:06:44;11.93;;;10.53;;
15712;SDS011;7957;51.608;6.916;2023-03-01T07:09:10;12.70;;;10.90;;
15712;SDS011;7957;51.608;6.916;2023-03-01T07:11:37;12.37;;;11.07;;
15712;SDS011;7957;51.608;6.916;2023-03-01T07:14:04;13.23;;;11.30;;
15712;SDS011;7957;51.608;6.916;2023-03-01T07:16:33;14.70;;;11.83;;
15712;SDS011;7957;51.608;6.916;2023-03-01T07:19:00;14.13;;;11.90;;
15712;SDS011;7957;51.608;6.916;2023-03-01T07:21:27;15.47;;;12.67;;
15712;SDS011;7957;51.608;6.916;2023-03-01T07:23:54;13.53;;;12.00;;
15712;SDS011;7957;51.608;6.916;2023-03-01T07:26:20;14.57;;;11.87;;
15712;SDS011;7957;51.608;6.916;2023-03-01T07:28:47;14.20;;;12.20;;
15712;SDS011;7957;51.608;6.916;2023-03-01T07:31:14;13.47;;;12.07;;
15712;SDS011;7957;51.608;6.916;2023-03-01T07:33:43;14.57;;;12.90;;
15712;SDS011;7957;51.608;6.916;2023-03-01T07:36:09;16.03;;;13.27;;
15712;SDS011;7957;51.608;6.916;2023-03-01T07:38:36;13.00;;;11.70;;
15712;SDS011;7957;51.608;6.916;2023-03-01T07:41:03;14.77;;;13.27;;
15712;SDS011;7957;51.608;6.916;2023-03-01T07:43:31;14.73;;;13.13;;
15712;SDS011;7957;51.608;6.916;2023-03-01T07:45:58;14.57;;;12.93;;
15712;SDS011;7957;51.608;6.916;2023-03-01T07:48:26;16.50;;;14.07;;
15712;SDS011;7957;51.608;6.916;2023-03-01T07:50:55;16.70;;;13.70;;
15712;SDS011;7957;51.608;6.916;2023-03-01T07:53:27;14.97;;;13.37;;
15712;SDS011;7957;51.608;6.916;2023-03-01T07:56:02;14.30;;;12.90;;
15712;SDS011;7957;51.608;6.916;2023-03-01T07:58:30;14.93;;;13.17;;
15712;SDS011;7957;51.608;6.916;2023-03-01T08:01:00;14.33;;;12.83;;
15712;SDS011;7957;51.608;6.916;2023-03-01T08:03:28;14.43;;;12.87;;
15712;SDS011;7957;51.608;6.916;2023-03-01T08:05:58;16.00;;;12.57;;
15712;SDS011;7957;51.608;6.916;2023-03-01T08:08:25;16.67;;;13.20;;
15712;SDS011;7957;51.608;6.916;2023-03-01T08:10:52;14.97;;;12.80;;
15712;SDS011;7957;51.608;6.916;2023-03-01T08:13:23;14.30;;;12.80;;
15712;SDS011;7957;51.608;6.916;2023-03-01T08:15:50;13.30;;;12.00;;
15712;SDS011;7957;51.608;6.916;2023-03-01T08:18:17;13.53;;;12.23;;
15712;SDS011;7957;51.608;6.916;2023-03-01T08:20:45;15.73;;;12.13;;
15712;SDS011;7957;51.608;6.916;2023-03-01T08:23:13;13.47;;;11.70;;
15712;SDS011;7957;51.608;6.916;2023-03-01T08:25:40;13.53;;;12.07;;
15712;SDS011;7957;51.608;6.916;2023-03-01T08:28:07;13.70;;;12.30;;
15712;SDS011;7957;51.608;6.916;2023-03-01T08:30:34;13.07;;;11.77;;
15712;SDS011;7957;51.608;6.916;2023-03-01T08:33:01;12.70;;;11.40;;
15712;SDS011;7957;51.608;6.916;2023-03-01T08:35:28;13.93;;;12.20;;
15712;SDS011;7957;51.608;6.916;2023-03-01T08:37:54;12.90;;;11.50;;
15712;SDS011;7957;51.608;6.916;2023-03-01T08:40:23;13.97;;;12.57;;
15712;SDS011;7957;51.608;6.916;2023-03-01T08:42:50;14.90;;;12.13;;
15712;SDS011;7957;51.608;6.916;2023-03-01T08:45:17;13.70;;;12.30;;
15712;SDS011;7957;51.608;6.916;2023-03-01T08:47:44;13.03;;;11.73;;
15712;SDS011;7957;51.608;6.916;2023-03-01T08:50:11;12.93;;;11.53;;
15712;SDS011;7957;51.608;6.916;2023-03-01T08:52:38;13.13;;;11.33;;
15712;SDS011;7957;51.608;6.916;2023-03-01T08:55:05;12.70;;;11.40;;
15712;SDS011;7957;51.608;6.916;2023-03-01T08:57:35;12.87;;;11.33;;
15712;SDS011;7957;51.608;6.916;2023-03-01T09:00:02;12.80;;;11.50;;
15712;SDS011;7957;51.608;6.916;2023-03-01T09:02:33;13.67;;;11.70;;
15712;SDS011;7957;51.608;6.916;2023-03-01T09:05:00;13.93;;;11.47;;
15712;SDS011;7957;51.608;6.916;2023-03-01T09:07:27;12.87;;;10.43;;
15712;SDS011;7957;51.608;6.916;2023-03-01T09:09:54;11.60;;;9.97;;
15712;SDS011;7957;51.608;6.916;2023-03-01T09:12:22;11.43;;;10.30;;
15712;SDS011;7957;51.608;6.916;2023-03-01T09:14:51;11.83;;;10.00;;
15712;SDS011;7957;51.608;6.916;2023-03-01T09:17:18;11.10;;;9.57;;
15712;SDS011;7957;51.608;6.916;2023-03-01T09:19:46;10.60;;;9.50;;
15712;SDS011;7957;51.608;6.916;2023-03-01T09:22:13;12.07;;;9.23;;
15712;SDS011;7957;51.608;6.916;2023-03-01T09:24:40;10.37;;;9.23;;
15712;SDS011;7957;51.608;6.916;2023-03-01T09:27:07;10.73;;;9.67;;
15712;SDS011;7957;51.608;6.916;2023-03-01T09:29:34;9.33;;;8.37;;
15712;SDS011;7957;51.608;6.916;2023-03-01T09:32:03;10.40;;;9.37;;
15712;SDS011;7957;51.608;6.916;2023-03-01T09:34:30;11.10;;;9.90;;
15712;SDS011;7957;51.608;6.916;2023-03-01T09:37:17;9.93;;;8.93;;
15712;SDS011;7957;51.608;6.916;2023-03-01T09:39:44;10.73;;;9.63;;
15712;SDS011;7957;51.608;6.916;2023-03-01T09:42:12;10.90;;;9.30;;
15712;SDS011;7957;51.608;6.916;2023-03-01T09:44:42;10.10;;;9.10;;
15712;SDS011;7957;51.608;6.916;2023-03-01T09:47:17;10.73;;;9.63;;
15712;SDS011;7957;51.608;6.916;2023-03-01T09:49:46;11.23;;;9.07;;
15712;SDS011;7957;51.608;6.916;2023-03-01T09:52:26;10.13;;;9.13;;
15712;SDS011;7957;51.608;6.916;2023-03-01T09:54:59;10.00;;;8.73;;
15712;SDS011;7957;51.608;6.916;2023-03-01T09:57:28;9.87;;;8.67;;
15712;SDS011;7957;51.608;6.916;2023-03-01T10:00:08;11.43;;;9.47;;
15712;SDS011;7957;51.608;6.916;2023-03-01T10:02:44;11.37;;;8.43;;
15712;SDS011;7957;51.608;6.916;2023-03-01T10:05:30;10.07;;;8.97;;
15712;SDS011;7957;51.608;6.916;2023-03-01T10:08:24;10.80;;;9.60;;
15712;SDS011;7957;51.608;6.916;2023-03-01T10:11:00;9.97;;;8.90;;
15712;SDS011;7957;51.608;6.916;2023-03-01T10:13:29;9.50;;;8.50;;
15712;SDS011;7957;51.608;6.916;2023-03-01T10:16:05;9.73;;;8.73;;
15712;SDS011;7957;51.608;6.916;2023-03-01T10:18:39;10.00;;;8.93;;
15712;SDS011;7957;51.608;6.916;2023-03-01T10:21:12;10.87;;;8.80;;
15712;SDS011;7957;51.608;6.916;2023-03-01T10:23:41;9.50;;;8.43;;
15712;SDS011;7957;51.608;6.916;2023-03-01T10:29:01;9.33;;;8.17;;
15712;SDS011;7957;51.608;6.916;2023-03-01T10:31:33;9.50;;;8.50;;
15712;SDS011;7957;51.608;6.916;2023-03-01T10:34:14;9.57;;;8.60;;
15712;SDS011;7957;51.608;6.916;2023-03-01T10:36:43;9.63;;;8.27;;
15712;SDS011;7957;51.608;6.916;2023-03-01T10:39:14;8.80;;;7.90;;
15712;SDS011;7957;51.608;6.916;2023-03-01T10:41:52;10.40;;;7.63;;
15712;SDS011;7957;51.608;6.916;2023-03-01T10:44:35;9.83;;;8.03;;
15712;SDS011;7957;51.608;6.916;2023-03-01T10:47:04;9.17;;;7.77;;
15712;SDS011;7957;51.608;6.916;2023-03-01T10:49:32;11.27;;;8.50;;
15712;SDS011;7957;51.608;6.916;2023-03-01T10:52:10;8.60;;;7.70;;
15712;SDS011;7957;51.608;6.916;2023-03-01T10:54:45;9.60;;;8.50;;
15712;SDS011;7957;51.608;6.916;2023-03-01T11:00:15;8.57;;;7.67;;
15712;SDS011;7957;51.608;6.916;2023-03-01T11:02:48;9.83;;;8.47;;
15712;SDS011;7957;51.608;6.916;2023-03-01T11:05:19;9.20;;;8.23;;
15712;SDS011;7957;51.608;6.916;2023-03-01T11:07:50;9.17;;;7.97;;
15712;SDS011;7957;51.608;6.916;2023-03-01T11:10:19;10.07;;;8.00;;
15712;SDS011;7957;51.608;6.916;2023-03-01T11:12:47;9.63;;;7.60;;
15712;SDS011;7957;51.608;6.916;2023-03-01T11:15:21;9.13;;;8.13;;
15712;SDS011;7957;51.608;6.916;2023-03-01T11:17:51;9.17;;;8.10;;
15712;SDS011;7957;51.608;6.916;2023-03-01T11:20:23;8.97;;;8.07;;
15712;SDS011;7957;51.608;6.916;2023-03-01T11:22:53;9.20;;;8.17;;
15712;SDS011;7957;51.608;6.916;2023-03-01T11:25:24;8.93;;;8.03;;
15712;SDS011;7957;51.608;6.916;2023-03-01T11:27:53;10.20;;;8.67;;
15712;SDS011;7957;51.608;6.916;2023-03-01T11:30:23;11.60;;;9.00;;
15712;SDS011;7957;51.608;6.916;2023-03-01T11:32:56;10.20;;;8.97;;
15712;SDS011;7957;51.608;6.916;2023-03-01T11:35:32;9.90;;;8.30;;
15712;SDS011;7957;51.608;6.916;2023-03-01T11:38:06;9.87;;;8.70;;
15712;SDS011;7957;51.608;6.916;2023-03-01T11:40:43;11.03;;;8.70;;
15712;SDS011;7957;51.608;6.916;2023-03-01T11:43:15;9.57;;;8.10;;
15712;SDS011;7957;51.608;6.916;2023-03-01T11:45:57;9.13;;;8.33;;
15712;SDS011;7957;51.608;6.916;2023-03-01T11:48:48;11.07;;;8.50;;
15712;SDS011;7957;51.608;6.916;2023-03-01T11:51:30;8.63;;;7.73;;
15712;SDS011;7957;51.608;6.916;2023-03-01T11:54:12;8.87;;;7.97;;
15712;SDS011;7957;51.608;6.916;2023-03-01T11:56:46;9.53;;;8.20;;
15712;SDS011;7957;51.608;6.916;2023-03-01T12:02:49;10.27;;;8.87;;
15712;SDS011;7957;51.608;6.916;2023-03-01T12:05:49;9.77;;;8.20;;
15712;SDS011;7957;51.608;6.916;2023-03-01T12:08:30;9.70;;;8.17;;
15712;SDS011;7957;51.608;6.916;2023-03-01T12:11:03;8.70;;;7.90;;
15712;SDS011;7957;51.608;6.916;2023-03-01T12:13:51;10.87;;;9.00;;
15712;SDS011;7957;51.608;6.916;2023-03-01T12:16:30;9.67;;;8.43;;
15712;SDS011;7957;51.608;6.916;2023-03-01T12:19:08;8.97;;;8.03;;
15712;SDS011;7957;51.608;6.916;2023-03-01T12:21:49;9.60;;;8.10;;
15712;SDS011;7957;51.608;6.916;2023-03-01T12:24:37;9.00;;;8.10;;
15712;SDS011;7957;51.608;6.916;2023-03-01T12:27:21;10.33;;;8.50;;
15712;SDS011;7957;51.608;6.916;2023-03-01T12:30:05;8.40;;;7.60;;
15712;SDS011;7957;51.608;6.916;2023-03-01T12:32:44;10.33;;;8.70;;
15712;SDS011;7957;51.608;6.916;2023-03-01T12:35:22;10.07;;;8.23;;
15712;SDS011;7957;51.608;6.916;2023-03-01T12:38:05;10.20;;;8.07;;
15712;SDS011;7957;51.608;6.916;2023-03-01T12:40:50;9.50;;;8.30;;
15712;SDS011;7957;51.608;6.916;2023-03-01T12:43:35;9.77;;;8.17;;
15712;SDS011;7957;51.608;6.916;2023-03-01T12:46:21;9.07;;;8.20;;
15712;SDS011;7957;51.608;6.916;2023-03-01T12:48:58;9.07;;;7.90;;
15712;SDS011;7957;51.608;6.916;2023-03-01T12:51:31;9.47;;;8.53;;
15712;SDS011;7957;51.608;6.916;2023-03-01T12:54:01;9.63;;;8.63;;
15712;SDS011;7957;51.608;6.916;2023-03-01T12:56:38;9.60;;;8.60;;
15712;SDS011;7957;51.608;6.916;2023-03-01T12:59:08;9.80;;;8.80;;
15712;SDS011;7957;51.608;6.916;2023-03-01T13:01:45;8.93;;;8.03;;
15712;SDS011;7957;51.608;6.916;2023-03-01T13:04:17;9.90;;;8.90;;
15712;SDS011;7957;51.608;6.916;2023-03-01T13:07:02;9.47;;;8.47;;
15712;SDS011;7957;51.608;6.916;2023-03-01T13:09:38;9.37;;;8.47;;
15712;SDS011;7957;51.608;6.916;2023-03-01T13:15:27;10.33;;;9.27;;
15712;SDS011;7957;51.608;6.916;2023-03-01T13:17:56;9.90;;;8.90;;
15712;SDS011;7957;51.608;6.916;2023-03-01T13:20:25;9.40;;;8.50;;
15712;SDS011;7957;51.608;6.916;2023-03-01T13:23:09;10.57;;;8.60;;
15712;SDS011;7957;51.608;6.916;2023-03-01T13:28:44;9.50;;;8.50;;
15712;SDS011;7957;51.608;6.916;2023-03-01T13:34:44;11.70;;;9.67;;
15712;SDS011;7957;51.608;6.916;2023-03-01T13:37:21;9.47;;;8.57;;
15712;SDS011;7957;51.608;6.916;2023-03-01T13:39:54;11.77;;;9.70;;
15712;SDS011;7957;51.608;6.916;2023-03-01T13:42:36;11.00;;;9.87;;
15712;SDS011;7957;51.608;6.916;2023-03-01T13:45:23;12.60;;;9.87;;
15712;SDS011;7957;51.608;6.916;2023-03-01T13:47:59;10.90;;;9.80;;
15712;SDS011;7957;51.608;6.916;2023-03-01T13:50:32;10.83;;;9.73;;
15712;SDS011;7957;51.608;6.916;2023-03-01T13:53:04;10.53;;;9.53;;
15712;SDS011;7957;51.608;6.916;2023-03-01T13:55:36;11.20;;;9.03;;
15712;SDS011;7957;51.608;6.916;2023-03-01T13:58:14;11.03;;;9.80;;
15712;SDS011;7957;51.608;6.916;2023-03-01T14:00:46;10.60;;;9.57;;
15712;SDS011;7957;51.608;6.916;2023-03-01T14:03:14;11.00;;;9.90;;
15712;SDS011;7957;51.608;6.916;2023-03-01T14:05:43;10.93;;;9.83;;
15712;SDS011;7957;51.608;6.916;2023-03-01T14:08:25;11.43;;;9.23;;
15712;SDS011;7957;51.608;6.916;2023-03-01T14:10:54;10.30;;;9.30;;
15712;SDS011;7957;51.608;6.916;2023-03-01T14:13:54;10.50;;;9.50;;
15712;SDS011;7957;51.608;6.916;2023-03-01T14:16:37;10.50;;;9.40;;
15712;SDS011;7957;51.608;6.916;2023-03-01T14:19:16;11.67;;;10.03;;
15712;SDS011;7957;51.608;6.916;2023-03-01T14:21:45;11.80;;;10.03;;
15712;SDS011;7957;51.608;6.916;2023-03-01T14:24:20;10.97;;;9.83;;
15712;SDS011;7957;51.608;6.916;2023-03-01T14:26:48;10.77;;;9.67;;
15712;SDS011;7957;51.608;6.916;2023-03-01T14:29:23;10.97;;;9.67;;
15712;SDS011;7957;51.608;6.916;2023-03-01T14:31:52;10.40;;;9.40;;
15712;SDS011;7957;51.608;6.916;2023-03-01T14:34:20;10.83;;;9.73;;
15712;SDS011;7957;51.608;6.916;2023-03-01T14:36:48;12.37;;;10.63;;
15712;SDS011;7957;51.608;6.916;2023-03-01T14:39:16;12.27;;;9.60;;
15712;SDS011;7957;51.608;6.916;2023-03-01T14:41:44;11.23;;;10.13;;
15712;SDS011;7957;51.608;6.916;2023-03-01T14:44:12;10.70;;;9.70;;
15712;SDS011;7957;51.608;6.916;2023-03-01T14:46:43;11.00;;;10.00;;
15712;SDS011;7957;51.608;6.916;2023-03-01T14:49:13;12.23;;;10.13;;
15712;SDS011;7957;51.608;6.916;2023-03-01T14:51:44;10.63;;;9.53;;
15712;SDS011;7957;51.608;6.916;2023-03-01T14:54:21;10.20;;;9.20;;
15712;SDS011;7957;51.608;6.916;2023-03-01T14:56:51;10.73;;;9.53;;
15712;SDS011;7957;51.608;6.916;2023-03-01T14:59:20;11.43;;;10.23;;
15712;SDS011;7957;51.608;6.916;2023-03-01T15:01:49;10.73;;;9.63;;
15712;SDS011;7957;51.608;6.916;2023-03-01T15:04:19;11.50;;;10.13;;
15712;SDS011;7957;51.608;6.916;2023-03-01T15:06:47;10.67;;;9.60;;
15712;SDS011;7957;51.608;6.916;2023-03-01T15:09:17;11.40;;;10.20;;
15712;SDS011;7957;51.608;6.916;2023-03-01T15:11:45;10.37;;;9.37;;
15712;SDS011;7957;51.608;6.916;2023-03-01T15:14:28;11.10;;;10.00;;
15712;SDS011;7957;51.608;6.916;2023-03-01T15:17:04;10.50;;;9.37;;
15712;SDS011;7957;51.608;6.916;2023-03-01T15:19:32;12.90;;;9.90;;
15712;SDS011;7957;51.608;6.916;2023-03-01T15:21:59;10.03;;;9.03;;
15712;SDS011;7957;51.608;6.916;2023-03-01T15:24:37;10.93;;;8.90;;
15712;SDS011;7957;51.608;6.916;2023-03-01T15:27:04;11.40;;;9.83;;